Terminal Aerodrome Forecast
Issued by NWS Rapid City, SD

Home | Current Version | Previous Version | Text Only | Print | Product List | Glossary Off
Versions: 1 2 3 4 5 6 7 8 9 10 11 12 13 14 15 16 17 18 19 20 21 22 23 24 25 26 27

000
FTUS43 KUNR 261358 AAA
TAFRAP
TAF AMD
KRAP 261358Z 2614/2712 03011KT 3/4SM -SN BR VV018
      TEMPO 2614/2617 3SM -SN BR BKN004
     FM261700 35015KT 6SM -SHRA BR SCT005 OVC008
     FM270300 35012KT 5SM BR OVC005=

USA.gov is the U.S. government's official web portal to all federal, state and local government web resources and services.